createdAt,value
2019-03-19T00:00:54.822Z,11.77
2019-03-19T00:03:36.056Z,12.33
2019-03-19T00:06:17.516Z,7.87
2019-03-19T00:08:58.819Z,11.67
2019-03-19T00:11:40.218Z,9.87
2019-03-19T00:14:21.507Z,10.30
2019-03-19T00:19:43.304Z,7.90
2019-03-19T00:22:25.784Z,7.83
2019-03-19T00:25:07.693Z,8.17
2019-03-19T00:27:49.204Z,7.60
2019-03-19T00:30:30.767Z,10.83
2019-03-19T00:33:12.346Z,9.60
2019-03-19T00:35:50.912Z,7.87
2019-03-19T00:38:32.915Z,13.50
2019-03-19T00:41:14.389Z,7.50
2019-03-19T00:43:55.674Z,10.10
2019-03-19T00:46:25.447Z,10.03
2019-03-19T00:49:14.189Z,8.70
2019-03-19T00:51:55.333Z,12.10
2019-03-19T00:54:36.171Z,8.97
2019-03-19T00:57:16.931Z,8.67
2019-03-19T01:02:29.745Z,9.30
2019-03-19T01:05:12.134Z,10.60
2019-03-19T01:07:53.288Z,10.63
2019-03-19T01:10:35.082Z,7.37
2019-03-19T01:13:14.103Z,13.07
2019-03-19T01:15:43.196Z,9.87
2019-03-19T01:18:12.918Z,6.23
2019-03-19T01:21:01.744Z,8.07
2019-03-19T01:23:50.563Z,7.17
2019-03-19T01:26:20.303Z,9.13
2019-03-19T01:28:50.049Z,7.43
2019-03-19T01:31:38.910Z,10.10
2019-03-19T01:34:27.743Z,7.70
2019-03-19T01:37:16.542Z,15.20
2019-03-19T01:39:45.606Z,11.70
2019-03-19T01:42:34.396Z,9.13
2019-03-19T01:45:23.141Z,5.33
2019-03-19T01:48:04.164Z,7.67
2019-03-19T01:50:45.177Z,7.53
2019-03-19T01:53:26.456Z,10.87
2019-03-19T01:56:05.674Z,9.90
2019-03-19T01:58:47.252Z,9.50
2019-03-19T02:01:29.465Z,5.53
2019-03-19T02:04:10.694Z,5.97
2019-03-19T02:06:52.843Z,12.17
2019-03-19T02:09:22.746Z,6.47
2019-03-19T02:12:11.468Z,10.43
2019-03-19T02:14:53.546Z,10.63
2019-03-19T02:20:17.933Z,5.80
2019-03-19T02:22:58.948Z,5.90
2019-03-19T02:25:40.470Z,5.40
2019-03-19T02:28:10.359Z,7.87
2019-03-19T02:30:40.175Z,7.13
2019-03-19T02:33:12.028Z,6.70
2019-03-19T02:35:44.134Z,6.10
2019-03-19T02:38:13.299Z,3.50
2019-03-19T02:40:42.400Z,6.13
2019-03-19T02:43:14.284Z,6.80
2019-03-19T02:45:44.028Z,6.27
2019-03-19T02:48:13.839Z,3.43
2019-03-19T02:51:02.738Z,2.17
2019-03-19T02:53:51.488Z,6.23
2019-03-19T02:59:15.471Z,4.87
2019-03-19T03:04:36.109Z,6.20
2019-03-19T03:07:17.577Z,6.70
2019-03-19T03:09:55.744Z,7.93
2019-03-19T03:12:37.145Z,7.53
2019-03-19T03:17:47.108Z,7.43
2019-03-19T03:20:35.821Z,9.33
2019-03-19T03:23:05.987Z,7.63
2019-03-19T03:25:35.819Z,7.13
2019-03-19T03:28:05.866Z,13.50
2019-03-19T03:30:54.600Z,8.97
2019-03-19T03:33:37.216Z,8.27
2019-03-19T03:36:18.632Z,9.37
2019-03-19T03:38:47.687Z,6.27
2019-03-19T03:41:17.389Z,8.73
2019-03-19T03:43:47.574Z,10.37
2019-03-19T03:46:36.299Z,11.87
2019-03-19T03:49:05.387Z,8.00
2019-03-19T03:51:54.061Z,10.90
2019-03-19T04:00:01.219Z,8.40
2019-03-19T04:05:14.437Z,9.07
2019-03-19T04:07:44.132Z,9.73
2019-03-19T04:10:32.917Z,13.10
2019-03-19T04:13:02.789Z,10.30
2019-03-19T04:15:32.529Z,8.80
2019-03-19T04:18:21.235Z,7.33
2019-03-19T04:21:09.960Z,9.47
2019-03-19T04:23:51.824Z,7.23
2019-03-19T04:26:21.642Z,10.90
2019-03-19T04:28:52.754Z,8.93
2019-03-19T04:31:41.555Z,12.00
2019-03-19T04:34:11.387Z,9.07
2019-03-19T04:39:32.540Z,9.37
2019-03-19T04:44:41.904Z,12.83
2019-03-19T04:47:30.659Z,10.53
2019-03-19T04:50:12.039Z,15.13
2019-03-19T04:52:50.402Z,7.50
2019-03-19T04:55:32.120Z,13.80
2019-03-19T04:58:01.286Z,10.40
2019-03-19T05:00:50.088Z,11.63
2019-03-19T05:03:32.177Z,7.30
2019-03-19T05:06:13.555Z,10.47
2019-03-19T05:08:54.767Z,11.07
2019-03-19T05:11:36.341Z,10.30
2019-03-19T05:14:17.536Z,14.30
2019-03-19T05:16:58.802Z,11.47
2019-03-19T05:19:39.942Z,13.23
2019-03-19T05:22:21.443Z,9.03
2019-03-19T05:25:02.653Z,10.40
2019-03-19T05:27:44.221Z,15.03
2019-03-19T05:30:25.934Z,11.43
2019-03-19T05:33:07.595Z,14.60
2019-03-19T05:38:28.221Z,16.20
2019-03-19T05:41:09.758Z,12.80
2019-03-19T05:43:51.287Z,7.77
2019-03-19T05:46:33.286Z,19.20
2019-03-19T05:49:14.549Z,16.77
2019-03-19T05:51:44.488Z,17.83
2019-03-19T05:54:33.400Z,12.97
2019-03-19T05:57:05.044Z,13.07
2019-03-19T05:59:34.789Z,14.47
2019-03-19T06:02:23.511Z,14.67
2019-03-19T06:04:53.324Z,9.30
2019-03-19T06:07:42.008Z,15.77
2019-03-19T06:10:30.796Z,16.13
2019-03-19T06:13:12.169Z,15.27
2019-03-19T06:15:53.043Z,14.70
2019-03-19T06:18:35.550Z,14.23
2019-03-19T06:21:06.834Z,10.67
2019-03-19T06:23:36.744Z,11.47
2019-03-19T06:26:25.574Z,13.97
2019-03-19T06:28:55.753Z,16.67
2019-03-19T06:31:44.554Z,12.03
2019-03-19T06:34:25.786Z,15.20
2019-03-19T06:37:06.739Z,15.93
2019-03-19T06:39:50.714Z,20.23
2019-03-19T06:42:31.613Z,21.90
2019-03-19T06:45:13.514Z,23.60
2019-03-19T06:47:51.782Z,15.37
2019-03-19T06:50:32.647Z,21.67
2019-03-19T06:55:57.437Z,13.70
2019-03-19T07:04:26.328Z,23.10
2019-03-19T07:06:56.330Z,10.50
2019-03-19T07:09:45.305Z,15.00
2019-03-19T07:12:34.117Z,16.00
2019-03-19T07:15:15.399Z,13.43
2019-03-19T07:17:57.830Z,6.67
2019-03-19T07:20:41.218Z,7.40
2019-03-19T07:23:31.600Z,17.63
2019-03-19T07:26:15.484Z,12.47
2019-03-19T07:28:56.548Z,14.97
2019-03-19T07:31:37.808Z,19.53
2019-03-19T07:34:19.477Z,6.83
2019-03-19T07:39:42.755Z,11.47
2019-03-19T07:42:14.925Z,9.37
2019-03-19T07:45:03.781Z,17.73
2019-03-19T07:48:08.242Z,11.07
2019-03-19T07:50:35.308Z,8.30
2019-03-19T07:56:01.821Z,11.37
2019-03-19T07:58:45.999Z,7.00
2019-03-19T08:01:15.148Z,12.93
2019-03-19T08:03:44.994Z,7.10
2019-03-19T08:06:33.941Z,15.50
2019-03-19T08:09:22.723Z,11.73
2019-03-19T08:12:03.907Z,15.70
2019-03-19T08:14:44.767Z,11.63
2019-03-19T08:17:22.891Z,16.70
2019-03-19T08:20:04.602Z,9.80
2019-03-19T08:22:47.535Z,13.50
2019-03-19T08:25:18.860Z,13.50
2019-03-19T08:28:07.645Z,10.57
2019-03-19T08:30:56.329Z,21.23
2019-03-19T08:33:37.496Z,8.83
2019-03-19T08:36:19.683Z,11.90
2019-03-19T08:39:01.554Z,13.87
2019-03-19T08:41:42.620Z,7.57
2019-03-19T08:44:27.768Z,7.40
2019-03-19T08:47:06.384Z,7.73
2019-03-19T08:49:47.776Z,13.77
2019-03-19T08:52:28.940Z,9.17
2019-03-19T08:55:10.984Z,11.70
2019-03-19T08:57:52.002Z,11.20
2019-03-19T09:00:33.027Z,6.57
2019-03-19T09:03:14.861Z,14.67
2019-03-19T09:05:53.777Z,7.83
2019-03-19T09:08:23.803Z,8.20
2019-03-19T09:11:15.558Z,12.23
2019-03-19T09:13:45.316Z,9.63
2019-03-19T09:16:14.353Z,12.80
2019-03-19T09:19:03.176Z,9.37
2019-03-19T09:21:36.302Z,14.83
2019-03-19T09:24:12.559Z,6.83
2019-03-19T09:26:59.379Z,10.07
2019-03-19T09:29:44.149Z,10.13
2019-03-19T09:32:28.246Z,15.77
2019-03-19T09:35:14.649Z,9.23
2019-03-19T09:42:57.548Z,3.63
2019-03-19T09:46:54.203Z,14.33
2019-03-19T09:49:39.196Z,10.80
2019-03-19T09:55:49.433Z,9.97
2019-03-19T10:01:44.911Z,7.53
2019-03-19T10:04:47.137Z,7.33
2019-03-19T10:09:53.804Z,9.63
2019-03-19T10:14:18.512Z,9.57
2019-03-19T10:18:10.886Z,7.10
2019-03-19T10:20:51.907Z,8.50
2019-03-19T10:23:33.189Z,10.17
2019-03-19T10:26:15.089Z,5.20
2019-03-19T10:28:56.278Z,6.13
2019-03-19T10:34:18.664Z,9.20
2019-03-19T10:39:49.313Z,4.70
2019-03-19T10:45:14.248Z,9.87
2019-03-19T10:47:55.737Z,11.50
2019-03-19T10:50:24.934Z,6.63
2019-03-19T10:53:13.136Z,7.07
2019-03-19T10:56:03.428Z,3.97
2019-03-19T10:58:41.703Z,4.00
2019-03-19T11:01:21.381Z,8.10
2019-03-19T11:03:56.365Z,6.57
2019-03-19T11:06:26.755Z,5.30
2019-03-19T11:09:15.650Z,4.07
2019-03-19T11:12:04.634Z,8.20
2019-03-19T11:14:47.177Z,5.40
2019-03-19T11:17:30.412Z,3.43
2019-03-19T11:20:11.023Z,5.60
2019-03-19T11:22:55.061Z,7.60
2019-03-19T11:25:37.645Z,5.00
2019-03-19T11:28:18.660Z,3.00
2019-03-19T11:31:00.417Z,6.30
2019-03-19T11:33:42.628Z,7.50
2019-03-19T11:36:20.650Z,10.10
2019-03-19T11:39:03.213Z,8.93
2019-03-19T11:41:46.964Z,6.50
2019-03-19T11:44:29.081Z,4.73
2019-03-19T11:49:49.692Z,5.67
2019-03-19T11:52:31.164Z,5.63
2019-03-19T11:57:52.334Z,4.07
2019-03-19T12:00:42.382Z,6.40
2019-03-19T12:03:23.929Z,7.97
2019-03-19T12:06:05.706Z,4.60
2019-03-19T12:08:46.963Z,6.67
2019-03-19T12:11:26.086Z,7.63
2019-03-19T12:14:09.312Z,6.47
2019-03-19T12:19:31.880Z,11.77
2019-03-19T12:22:12.813Z,10.20
2019-03-19T12:24:50.933Z,8.37
2019-03-19T12:27:40.367Z,6.90
2019-03-19T12:30:25.935Z,4.67
2019-03-19T12:33:03.564Z,10.17
2019-03-19T12:35:45.658Z,4.30
2019-03-19T12:38:20.274Z,5.37
2019-03-19T12:41:09.361Z,6.00
2019-03-19T12:43:38.617Z,6.17
2019-03-19T12:46:13.839Z,7.93
2019-03-19T12:48:40.876Z,7.63
2019-03-19T12:51:29.888Z,12.17
2019-03-19T12:53:59.647Z,8.83
2019-03-19T12:56:50.494Z,3.57
2019-03-19T12:59:39.515Z,1.40
2019-03-19T13:02:28.330Z,2.90
2019-03-19T13:05:17.366Z,3.97
2019-03-19T13:08:07.313Z,4.37
2019-03-19T13:13:34.501Z,2.30
2019-03-19T13:18:57.798Z,2.73
2019-03-19T13:24:21.558Z,5.87
2019-03-19T13:27:02.852Z,3.47
2019-03-19T13:29:44.388Z,2.63
2019-03-19T13:32:31.189Z,5.20
2019-03-19T13:35:12.857Z,3.27
2019-03-19T13:40:33.655Z,11.57
2019-03-19T13:43:12.103Z,6.27
2019-03-19T13:45:53.927Z,7.43
2019-03-19T13:48:32.746Z,5.57
2019-03-19T13:51:14.429Z,4.10
2019-03-19T13:59:19.167Z,9.17
2019-03-19T14:04:40.359Z,9.57
2019-03-19T14:10:05.374Z,7.93
2019-03-19T14:12:47.055Z,7.50
2019-03-19T14:15:26.742Z,11.43
2019-03-19T14:18:19.287Z,9.10
2019-03-19T14:21:02.407Z,7.63
2019-03-19T14:23:45.353Z,12.07
2019-03-19T14:26:26.579Z,6.93
2019-03-19T14:29:09.535Z,13.73
2019-03-19T14:31:48.272Z,10.33
2019-03-19T14:34:29.770Z,8.13
2019-03-19T14:39:48.248Z,10.07
2019-03-19T14:42:29.709Z,6.03
2019-03-19T14:45:08.596Z,11.60
2019-03-19T14:47:50.166Z,6.80
2019-03-19T14:50:30.751Z,6.87
2019-03-19T14:53:12.238Z,9.50
2019-03-19T14:55:54.603Z,8.73
2019-03-19T14:58:35.968Z,9.13
2019-03-19T15:01:19.251Z,10.70
2019-03-19T15:04:04.568Z,6.33
2019-03-19T15:06:34.630Z,9.63
2019-03-19T15:09:23.513Z,6.53
2019-03-19T15:11:53.360Z,7.10
2019-03-19T15:14:42.283Z,3.40
2019-03-19T15:17:11.370Z,3.97
2019-03-19T15:20:00.395Z,4.43
2019-03-19T15:22:49.391Z,5.13
2019-03-19T15:25:31.026Z,4.50
2019-03-19T15:30:52.450Z,4.40
2019-03-19T15:36:13.797Z,11.43
2019-03-19T15:41:31.223Z,2.93
2019-03-19T15:47:08.084Z,3.03
2019-03-19T15:49:50.084Z,4.30
2019-03-19T15:52:31.831Z,4.73
2019-03-19T15:55:10.046Z,6.63
2019-03-19T15:57:40.187Z,10.17
2019-03-19T16:00:28.403Z,4.83
2019-03-19T16:03:24.030Z,7.83
2019-03-19T16:06:09.375Z,10.47
2019-03-19T16:08:42.414Z,13.53
2019-03-19T16:11:25.213Z,13.37
2019-03-19T16:14:02.226Z,19.50
2019-03-19T16:19:52.492Z,12.47
2019-03-19T16:22:41.336Z,14.03
2019-03-19T16:25:29.961Z,16.23
2019-03-19T16:28:11.084Z,18.47
2019-03-19T16:30:52.621Z,13.97
2019-03-19T16:36:25.064Z,14.07
2019-03-19T16:41:48.133Z,15.73
2019-03-19T16:47:12.522Z,11.33
2019-03-19T16:49:53.883Z,19.63
2019-03-19T16:52:36.864Z,20.30
2019-03-19T16:55:21.908Z,25.83
2019-03-19T16:58:07.105Z,28.07
2019-03-19T17:03:22.421Z,23.07
2019-03-19T17:06:02.140Z,20.57
2019-03-19T17:08:46.905Z,20.93
2019-03-19T18:19:16.565Z,13.57
2019-03-19T18:27:50.064Z,14.40
2019-03-19T18:33:20.576Z,16.90
2019-03-19T18:36:03.244Z,17.27
2019-03-19T18:38:45.970Z,21.17
2019-03-19T18:41:29.129Z,16.80
2019-03-19T18:44:08.298Z,17.90
2019-03-19T18:46:56.674Z,16.33
2019-03-19T18:49:40.948Z,17.13
2019-03-19T19:01:38.624Z,19.80
2019-03-19T19:07:11.146Z,24.53
2019-03-19T19:09:52.139Z,24.40
2019-03-19T19:12:35.765Z,26.13
2019-03-19T19:15:17.446Z,26.07
2019-03-19T19:17:59.161Z,27.57
2019-03-19T19:20:40.325Z,29.97
2019-03-19T19:25:53.814Z,23.20
2019-03-19T19:28:23.981Z,21.10
2019-03-19T19:30:53.135Z,19.77
2019-03-19T19:33:22.997Z,16.20
2019-03-19T19:36:11.773Z,20.73
2019-03-19T19:38:53.129Z,20.17
2019-03-19T19:41:34.441Z,17.93
2019-03-19T19:44:15.853Z,17.27
2019-03-19T19:46:57.475Z,16.73
2019-03-19T19:49:35.611Z,17.13
2019-03-19T19:52:17.226Z,20.50
2019-03-19T19:54:55.454Z,20.13
2019-03-19T19:57:36.989Z,17.83
2019-03-19T20:00:15.099Z,14.57
2019-03-19T20:02:56.865Z,14.70
2019-03-19T20:08:21.324Z,23.87
2019-03-19T20:11:02.675Z,20.33
2019-03-19T20:16:23.019Z,24.23
2019-03-19T20:19:04.629Z,20.87
2019-03-19T20:21:45.609Z,25.07
2019-03-19T20:24:27.120Z,26.30
2019-03-19T20:27:05.465Z,27.17
2019-03-19T20:29:47.883Z,22.03
2019-03-19T20:32:30.619Z,22.50
2019-03-19T20:35:12.230Z,21.23
2019-03-19T20:37:53.507Z,22.03
2019-03-19T20:40:35.139Z,24.97
2019-03-19T20:45:55.907Z,21.80
2019-03-19T20:48:38.702Z,22.77
2019-03-19T20:51:19.722Z,27.13
2019-03-19T20:54:01.487Z,23.07
2019-03-19T20:56:42.604Z,21.60
2019-03-19T20:59:24.247Z,28.60
2019-03-19T21:04:58.903Z,21.03
2019-03-19T21:07:40.113Z,23.30
2019-03-19T21:13:00.852Z,25.43
2019-03-19T21:15:42.593Z,18.47
2019-03-19T21:18:24.184Z,19.33
2019-03-19T21:26:31.022Z,26.27
2019-03-19T21:29:29.864Z,22.53
2019-03-19T21:37:52.487Z,27.80
2019-03-19T21:40:33.802Z,29.43
2019-03-19T21:43:15.993Z,29.57
2019-03-19T21:48:40.306Z,27.27
2019-03-19T21:54:02.344Z,31.23
2019-03-19T21:56:46.872Z,36.63
2019-03-19T22:02:04.731Z,29.50
2019-03-19T22:04:52.847Z,30.40
2019-03-19T22:07:31.142Z,29.07
2019-03-19T22:10:12.834Z,25.87
2019-03-19T22:12:51.980Z,28.47
2019-03-19T22:18:28.815Z,21.10
2019-03-19T22:21:11.874Z,26.43
2019-03-19T22:23:53.307Z,24.53
2019-03-19T22:26:36.356Z,24.47
2019-03-19T22:31:58.076Z,27.93
2019-03-19T22:34:39.521Z,24.07
2019-03-19T22:37:18.247Z,20.93
2019-03-19T22:39:59.952Z,29.67
2019-03-19T22:42:41.122Z,32.60
2019-03-19T22:45:19.372Z,32.67
2019-03-19T22:53:25.465Z,41.20
2019-03-19T22:55:56.553Z,43.63
2019-03-19T22:58:45.362Z,50.27
2019-03-19T23:01:33.381Z,39.27
2019-03-19T23:04:15.385Z,37.67
2019-03-19T23:06:45.344Z,41.07
2019-03-19T23:12:37.720Z,41.33
2019-03-19T23:15:15.620Z,36.37
2019-03-19T23:17:56.787Z,35.33
2019-03-19T23:20:40.619Z,33.80
2019-03-19T23:23:21.945Z,38.90
2019-03-19T23:26:12.132Z,37.13
2019-03-19T23:29:01.095Z,44.07
2019-03-19T23:31:42.218Z,32.47
2019-03-19T23:34:23.456Z,27.70
2019-03-19T23:37:04.644Z,34.60
2019-03-19T23:42:26.054Z,36.77
2019-03-19T23:45:09.119Z,31.70
2019-03-19T23:50:34.832Z,28.30
2019-03-19T23:53:18.464Z,30.97
2019-03-19T23:55:59.748Z,34.23
